createdAt,value
2023-02-18T00:00:40.320Z,9.80
2023-02-18T00:03:11.272Z,9.47
2023-02-18T00:05:40.464Z,11.20
2023-02-18T00:08:09.985Z,9.80
2023-02-18T00:10:39.201Z,11.00
2023-02-18T00:13:08.496Z,11.87
2023-02-18T00:15:37.731Z,10.33
2023-02-18T00:18:07.961Z,11.70
2023-02-18T00:20:40.848Z,11.70
2023-02-18T00:23:10.346Z,10.50
2023-02-18T00:25:39.653Z,10.57
2023-02-18T00:28:08.924Z,11.40
2023-02-18T00:30:42.044Z,11.60
2023-02-18T00:33:11.711Z,10.80
2023-02-18T00:35:42.913Z,10.30
2023-02-18T00:38:12.307Z,11.50
2023-02-18T00:40:42.077Z,11.60
2023-02-18T00:43:11.504Z,11.33
2023-02-18T00:45:41.743Z,10.07
2023-02-18T00:48:11.535Z,10.90
2023-02-18T00:50:42.202Z,10.73
2023-02-18T00:53:11.596Z,10.13
2023-02-18T00:55:41.740Z,10.57
2023-02-18T00:58:11.095Z,9.93
2023-02-18T01:00:40.301Z,10.90
2023-02-18T01:03:09.727Z,10.90
2023-02-18T01:05:39.471Z,10.93
2023-02-18T01:08:11.178Z,10.63
2023-02-18T01:10:43.233Z,10.50
2023-02-18T01:13:13.855Z,11.10
2023-02-18T01:15:43.629Z,10.87
2023-02-18T01:18:13.707Z,10.80
2023-02-18T01:20:44.143Z,10.23
2023-02-18T01:23:15.332Z,10.43
2023-02-18T01:25:44.795Z,10.90
2023-02-18T01:28:14.894Z,12.80
2023-02-18T01:30:44.652Z,13.17
2023-02-18T01:33:13.923Z,13.00
2023-02-18T01:35:43.286Z,13.57
2023-02-18T01:38:14.703Z,13.10
2023-02-18T01:40:48.958Z,13.63
2023-02-18T01:43:18.311Z,13.77
2023-02-18T01:45:53.209Z,13.97
2023-02-18T01:48:25.290Z,12.90
2023-02-18T01:50:56.793Z,13.33
2023-02-18T01:53:29.485Z,12.40
2023-02-18T01:55:59.080Z,13.10
2023-02-18T01:58:28.402Z,13.20
2023-02-18T02:00:57.845Z,13.30
2023-02-18T02:03:27.086Z,12.77
2023-02-18T02:05:57.749Z,14.27
2023-02-18T02:08:29.413Z,13.03
2023-02-18T02:11:07.573Z,13.60
2023-02-18T02:13:44.162Z,14.13
2023-02-18T02:16:15.049Z,14.60
2023-02-18T02:18:50.150Z,16.30
2023-02-18T02:21:37.266Z,15.97
2023-02-18T02:24:15.241Z,15.10
2023-02-18T02:27:06.941Z,14.73
2023-02-18T02:29:48.962Z,14.77
2023-02-18T02:32:33.023Z,17.13
2023-02-18T02:35:05.134Z,15.50
2023-02-18T02:37:37.516Z,15.50
2023-02-18T02:40:18.237Z,14.70
2023-02-18T02:42:53.168Z,15.93
2023-02-18T02:45:26.447Z,14.87
2023-02-18T02:47:58.921Z,13.90
2023-02-18T02:50:37.908Z,15.07
2023-02-18T02:53:08.944Z,15.73
2023-02-18T02:55:38.149Z,17.60
2023-02-18T02:58:07.376Z,16.67
2023-02-18T03:00:41.634Z,14.53
2023-02-18T03:03:30.552Z,15.20
2023-02-18T03:06:12.292Z,16.00
2023-02-18T03:08:48.582Z,15.10
2023-02-18T03:11:19.897Z,15.80
2023-02-18T03:13:55.524Z,15.53
2023-02-18T03:16:29.758Z,15.43
2023-02-18T03:19:01.758Z,15.90
2023-02-18T03:21:35.407Z,15.40
2023-02-18T03:24:08.153Z,15.67
2023-02-18T03:26:40.307Z,15.70
2023-02-18T03:29:10.992Z,15.90
2023-02-18T03:31:41.359Z,15.00
2023-02-18T03:34:13.483Z,15.53
2023-02-18T03:36:46.331Z,15.80
2023-02-18T03:39:17.407Z,15.73
2023-02-18T03:41:47.221Z,15.47
2023-02-18T03:44:16.411Z,15.20
2023-02-18T03:46:46.585Z,15.30
2023-02-18T03:49:16.898Z,14.97
2023-02-18T03:51:47.755Z,14.90
2023-02-18T03:54:16.885Z,14.80
2023-02-18T03:56:46.118Z,16.10
2023-02-18T03:59:15.384Z,15.50
2023-02-18T04:01:44.598Z,15.90
2023-02-18T04:04:14.206Z,16.63
2023-02-18T04:06:43.486Z,14.77
2023-02-18T04:09:14.119Z,15.33
2023-02-18T04:11:43.653Z,14.30
2023-02-18T04:14:15.308Z,16.57
2023-02-18T04:16:44.587Z,15.37
2023-02-18T04:19:13.913Z,15.27
2023-02-18T04:21:43.590Z,16.40
2023-02-18T04:24:14.189Z,15.97
2023-02-18T04:26:43.450Z,16.40
2023-02-18T04:29:12.847Z,15.97
2023-02-18T04:31:42.186Z,16.57
2023-02-18T04:34:11.442Z,16.07
2023-02-18T04:36:40.626Z,15.83
2023-02-18T04:39:09.937Z,16.23
2023-02-18T04:41:40.638Z,16.70
2023-02-18T04:44:10.189Z,15.33
2023-02-18T04:46:39.464Z,16.37
2023-02-18T04:49:08.683Z,16.40
2023-02-18T04:51:38.651Z,16.23
2023-02-18T04:54:07.890Z,17.33
2023-02-18T04:56:37.426Z,17.30
2023-02-18T04:59:07.998Z,17.13
2023-02-18T05:01:37.505Z,16.20
2023-02-18T05:04:06.948Z,16.07
2023-02-18T05:06:36.384Z,17.50
2023-02-18T05:09:05.703Z,16.53
2023-02-18T05:11:34.939Z,17.00
2023-02-18T05:14:04.328Z,16.07
2023-02-18T05:16:35.082Z,15.83
2023-02-18T05:19:04.558Z,16.77
2023-02-18T05:21:34.272Z,16.33
2023-02-18T05:24:03.776Z,16.33
2023-02-18T05:26:32.936Z,18.10
2023-02-18T05:29:02.160Z,17.17
2023-02-18T05:31:31.954Z,15.60
2023-02-18T05:34:02.714Z,16.87
2023-02-18T05:36:31.879Z,16.97
2023-02-18T05:39:01.064Z,16.50
2023-02-18T05:41:30.238Z,16.77
2023-02-18T05:44:16.833Z,16.60
2023-02-18T05:46:46.429Z,18.40
2023-02-18T05:49:17.070Z,16.40
2023-02-18T05:51:46.316Z,17.60
2023-02-18T05:54:15.978Z,18.43
2023-02-18T05:56:45.203Z,19.20
2023-02-18T05:59:14.368Z,19.50
2023-02-18T06:01:43.676Z,19.47
2023-02-18T06:04:12.849Z,19.37
2023-02-18T06:06:43.775Z,20.20
2023-02-18T06:09:13.074Z,21.03
2023-02-18T06:11:42.294Z,21.20
2023-02-18T06:14:11.659Z,21.83
2023-02-18T06:16:40.938Z,20.80
2023-02-18T06:19:10.150Z,20.03
2023-02-18T06:21:39.303Z,22.60
2023-02-18T06:24:10.378Z,20.87
2023-02-18T06:26:39.665Z,21.10
2023-02-18T06:29:08.789Z,21.30
2023-02-18T06:31:38.236Z,20.07
2023-02-18T06:34:07.509Z,19.40
2023-02-18T06:36:36.781Z,23.03
2023-02-18T06:39:06.801Z,19.80
2023-02-18T06:41:37.579Z,21.03
2023-02-18T06:44:06.940Z,20.07
2023-02-18T06:46:36.235Z,22.13
2023-02-18T06:49:06.154Z,20.57
2023-02-18T06:51:35.297Z,22.07
2023-02-18T06:54:06.144Z,19.80
2023-02-18T06:56:35.334Z,20.70
2023-02-18T06:59:06.201Z,20.77
2023-02-18T07:01:35.461Z,22.93
2023-02-18T07:04:04.709Z,22.90
2023-02-18T07:06:33.906Z,21.63
2023-02-18T07:09:03.147Z,20.77
2023-02-18T07:11:32.393Z,19.40
2023-02-18T07:14:01.595Z,20.73
2023-02-18T07:16:32.356Z,21.63
2023-02-18T07:19:01.684Z,22.13
2023-02-18T07:21:30.875Z,21.40
2023-02-18T07:24:00.221Z,23.20
2023-02-18T07:26:29.573Z,22.27
2023-02-18T07:28:58.774Z,25.70
2023-02-18T07:31:28.121Z,24.90
2023-02-18T07:33:58.968Z,24.03
2023-02-18T07:36:28.420Z,23.57
2023-02-18T07:38:57.572Z,23.80
2023-02-18T07:41:26.963Z,24.23
2023-02-18T07:43:56.173Z,23.20
2023-02-18T07:46:25.410Z,24.33
2023-02-18T07:48:54.607Z,23.83
2023-02-18T07:51:25.610Z,24.80
2023-02-18T07:53:54.960Z,24.97
2023-02-18T07:56:24.144Z,24.40
2023-02-18T07:58:53.484Z,24.00
2023-02-18T08:01:22.646Z,25.60
2023-02-18T08:03:51.823Z,25.60
2023-02-18T08:06:23.441Z,23.70
2023-02-18T08:08:54.065Z,26.00
2023-02-18T08:11:23.291Z,25.20
2023-02-18T08:13:52.688Z,24.90
2023-02-18T08:16:22.532Z,24.67
2023-02-18T08:18:52.351Z,25.37
2023-02-18T08:21:23.134Z,24.87
2023-02-18T08:23:53.998Z,25.50
2023-02-18T08:26:24.104Z,26.30
2023-02-18T08:28:53.384Z,27.50
2023-02-18T08:31:24.104Z,26.20
2023-02-18T08:33:54.159Z,25.40
2023-02-18T08:36:23.346Z,27.37
2023-02-18T08:38:54.207Z,27.27
2023-02-18T08:41:23.524Z,27.97
2023-02-18T08:43:52.697Z,26.90
2023-02-18T08:46:33.841Z,27.30
2023-02-18T08:49:05.616Z,26.67
2023-02-18T08:51:34.964Z,26.40
2023-02-18T08:54:06.716Z,26.37
2023-02-18T08:56:36.085Z,26.63
2023-02-18T08:59:05.629Z,35.47
2023-02-18T09:01:34.988Z,29.17
2023-02-18T09:04:04.346Z,28.10
2023-02-18T09:06:33.691Z,29.43
2023-02-18T09:09:03.038Z,30.37
2023-02-18T09:11:33.940Z,27.20
2023-02-18T09:14:03.158Z,27.00
2023-02-18T09:16:32.565Z,27.57
2023-02-18T09:19:01.771Z,29.43
2023-02-18T09:21:30.927Z,27.83
2023-02-18T09:24:00.699Z,30.37
2023-02-18T09:26:30.109Z,31.67
2023-02-18T09:29:00.804Z,30.60
2023-02-18T09:31:30.889Z,29.40
2023-02-18T09:34:01.714Z,25.50
2023-02-18T09:36:31.104Z,26.87
2023-02-18T09:39:00.968Z,25.97
2023-02-18T09:41:35.028Z,25.80
2023-02-18T09:44:07.664Z,26.07
2023-02-18T09:46:38.433Z,26.73
2023-02-18T09:49:09.544Z,27.60
2023-02-18T09:51:38.825Z,26.57
2023-02-18T09:54:08.058Z,27.70
2023-02-18T09:56:40.625Z,26.23
2023-02-18T09:59:14.818Z,26.27
2023-02-18T10:01:45.126Z,26.63
2023-02-18T10:04:18.599Z,27.57
2023-02-18T10:06:48.666Z,26.73
2023-02-18T10:09:21.442Z,30.17
2023-02-18T10:11:53.695Z,30.47
2023-02-18T10:14:24.591Z,30.40
2023-02-18T10:16:54.599Z,30.10
2023-02-18T10:19:26.579Z,29.57
2023-02-18T10:21:57.266Z,29.37
2023-02-18T10:24:29.778Z,30.10
2023-02-18T10:26:59.042Z,30.23
2023-02-18T10:29:32.441Z,30.07
2023-02-18T10:32:06.969Z,28.33
2023-02-18T10:34:42.810Z,33.87
2023-02-18T10:37:20.972Z,29.47
2023-02-18T10:40:01.796Z,30.63
2023-02-18T10:42:36.147Z,29.07
2023-02-18T10:45:15.737Z,29.47
2023-02-18T10:47:47.134Z,28.83
2023-02-18T10:50:20.937Z,30.27
2023-02-18T10:52:51.488Z,28.80
2023-02-18T10:55:22.253Z,27.67
2023-02-18T10:57:52.848Z,29.27
2023-02-18T11:00:26.686Z,31.13
2023-02-18T11:03:14.029Z,31.13
2023-02-18T11:05:43.618Z,30.80
2023-02-18T11:08:14.121Z,31.23
2023-02-18T11:10:45.736Z,31.20
2023-02-18T11:13:16.492Z,30.73
2023-02-18T11:15:57.932Z,29.30
2023-02-18T11:18:39.204Z,26.33
2023-02-18T11:21:21.638Z,26.77
2023-02-18T11:23:51.992Z,24.10
2023-02-18T11:26:24.328Z,25.07
2023-02-18T11:28:54.613Z,25.73
2023-02-18T11:31:26.738Z,25.23
2023-02-18T11:33:57.668Z,25.10
2023-02-18T11:36:28.291Z,24.10
2023-02-18T11:38:58.505Z,17.80
2023-02-18T11:41:35.530Z,18.57
2023-02-18T11:44:06.962Z,17.47
2023-02-18T11:46:37.932Z,16.00
2023-02-18T11:49:22.503Z,17.53
2023-02-18T11:51:53.181Z,17.33
2023-02-18T11:54:27.587Z,16.77
2023-02-18T11:56:57.745Z,20.83
2023-02-18T11:59:27.342Z,20.30
2023-02-18T12:02:02.483Z,20.40
2023-02-18T12:04:33.959Z,19.10
2023-02-18T12:07:09.046Z,21.27
2023-02-18T12:09:39.478Z,15.10
2023-02-18T12:12:14.091Z,15.37
2023-02-18T12:14:43.503Z,16.50
2023-02-18T12:17:22.183Z,16.17
2023-02-18T12:20:06.782Z,16.80
2023-02-18T12:22:43.932Z,16.77
2023-02-18T12:25:23.194Z,18.60
2023-02-18T12:27:56.406Z,19.80
2023-02-18T12:30:34.962Z,19.97
2023-02-18T12:33:08.436Z,21.20
2023-02-18T12:35:43.973Z,19.60
2023-02-18T12:38:28.431Z,19.40
2023-02-18T12:41:07.395Z,18.90
2023-02-18T12:43:42.202Z,18.77
2023-02-18T12:46:26.267Z,19.10
2023-02-18T12:49:03.446Z,19.03
2023-02-18T12:51:38.905Z,18.57
2023-02-18T12:54:23.020Z,18.00
2023-02-18T12:56:59.771Z,17.40
2023-02-18T12:59:50.727Z,19.00
2023-02-18T13:02:31.905Z,18.37
2023-02-18T13:05:08.871Z,19.13
2023-02-18T13:07:47.530Z,16.33
2023-02-18T13:10:25.738Z,16.13
2023-02-18T13:12:59.106Z,17.07
2023-02-18T13:15:33.427Z,16.70
2023-02-18T13:18:03.632Z,16.27
2023-02-18T13:20:37.313Z,19.90
2023-02-18T13:23:07.968Z,13.10
2023-02-18T13:25:39.740Z,12.67
2023-02-18T13:28:15.956Z,13.60
2023-02-18T13:30:47.437Z,14.20
2023-02-18T13:33:19.869Z,13.03
2023-02-18T13:35:53.928Z,13.60
2023-02-18T13:38:34.926Z,13.10
2023-02-18T13:41:04.746Z,13.13
2023-02-18T13:43:34.628Z,13.47
2023-02-18T13:46:10.644Z,11.60
2023-02-18T13:48:45.088Z,11.90
2023-02-18T13:51:16.737Z,11.27
2023-02-18T13:53:51.616Z,12.43
2023-02-18T13:56:23.116Z,11.23
2023-02-18T13:58:53.876Z,11.60
2023-02-18T14:01:47.721Z,11.83
2023-02-18T14:04:35.118Z,10.30
2023-02-18T14:07:27.504Z,13.50
2023-02-18T14:09:57.422Z,11.60
2023-02-18T14:12:28.055Z,12.27
2023-02-18T14:14:57.498Z,12.17
2023-02-18T14:17:32.410Z,10.80
2023-02-18T14:20:20.228Z,10.33
2023-02-18T14:22:52.108Z,12.43
2023-02-18T14:25:24.916Z,9.80
2023-02-18T14:27:55.092Z,8.30
2023-02-18T14:30:29.381Z,8.60
2023-02-18T14:32:59.751Z,8.37
2023-02-18T14:35:34.239Z,7.63
2023-02-18T14:38:22.384Z,6.87
2023-02-18T14:41:06.454Z,15.20
2023-02-18T14:43:41.845Z,6.37
2023-02-18T14:46:15.502Z,6.70
2023-02-18T14:48:53.384Z,5.63
2023-02-18T14:51:24.981Z,7.30
2023-02-18T14:53:54.743Z,6.63
2023-02-18T14:56:25.645Z,6.60
2023-02-18T14:58:59.064Z,5.67
2023-02-18T15:01:30.237Z,7.83
2023-02-18T15:03:59.731Z,7.33
2023-02-18T15:06:31.823Z,5.67
2023-02-18T15:09:01.401Z,5.37
2023-02-18T15:11:37.980Z,6.60
2023-02-18T15:14:12.382Z,5.30
2023-02-18T15:16:42.075Z,15.23
2023-02-18T15:19:15.366Z,5.00
2023-02-18T15:21:46.401Z,7.83
2023-02-18T15:24:22.414Z,5.10
2023-02-18T15:26:53.416Z,4.70
2023-02-18T15:29:24.081Z,5.30
2023-02-18T15:31:53.579Z,4.70
2023-02-18T15:34:35.406Z,4.50
2023-02-18T15:37:06.543Z,4.30
2023-02-18T15:39:38.788Z,4.90
2023-02-18T15:42:17.036Z,5.37
2023-02-18T15:44:48.654Z,5.20
2023-02-18T15:47:18.878Z,7.73
2023-02-18T15:49:48.788Z,6.57
2023-02-18T15:52:18.315Z,4.93
2023-02-18T15:54:47.627Z,4.40
2023-02-18T15:57:18.656Z,4.60
2023-02-18T15:59:49.024Z,4.20
2023-02-18T16:02:20.220Z,4.20
2023-02-18T16:04:53.418Z,4.47
2023-02-18T16:07:25.285Z,4.20
2023-02-18T16:10:09.752Z,4.83
2023-02-18T16:12:41.578Z,4.70
2023-02-18T16:15:14.065Z,5.93
2023-02-18T16:17:46.052Z,5.47
2023-02-18T16:20:20.775Z,5.70
2023-02-18T16:22:53.580Z,5.30
2023-02-18T16:25:25.351Z,5.30
2023-02-18T16:27:57.414Z,5.80
2023-02-18T16:30:27.528Z,6.23
2023-02-18T16:32:58.141Z,5.10
2023-02-18T16:35:30.710Z,5.63
2023-02-18T16:38:02.751Z,5.97
2023-02-18T16:40:33.184Z,5.83
2023-02-18T16:43:05.179Z,5.87
2023-02-18T16:45:35.723Z,6.83
2023-02-18T16:48:05.189Z,6.27
2023-02-18T16:50:35.349Z,6.70
2023-02-18T16:53:04.561Z,5.80
2023-02-18T16:55:34.563Z,7.70
2023-02-18T16:58:05.489Z,6.80
2023-02-18T17:00:35.128Z,6.43
2023-02-18T17:03:04.334Z,7.10
2023-02-18T17:05:36.774Z,7.20
2023-02-18T17:08:16.433Z,6.23
2023-02-18T17:10:45.730Z,5.90
2023-02-18T17:13:17.637Z,6.40
2023-02-18T17:15:47.983Z,6.20
2023-02-18T17:18:17.398Z,6.17
2023-02-18T17:20:48.590Z,7.17
2023-02-18T17:23:18.475Z,6.50
2023-02-18T17:25:48.546Z,6.53
2023-02-18T17:28:20.298Z,5.00
2023-02-18T17:30:51.602Z,7.03
2023-02-18T17:33:21.186Z,6.90
2023-02-18T17:35:50.574Z,6.10
2023-02-18T17:38:21.146Z,6.70
2023-02-18T17:40:50.846Z,5.80
2023-02-18T17:43:23.979Z,7.00
2023-02-18T17:45:54.217Z,6.03
2023-02-18T17:48:23.730Z,5.43
2023-02-18T17:50:53.354Z,4.77
2023-02-18T17:53:22.913Z,5.63
2023-02-18T17:55:52.538Z,5.20
2023-02-18T17:58:23.223Z,5.53
2023-02-18T18:00:53.655Z,6.03
2023-02-18T18:03:23.802Z,5.63
2023-02-18T18:05:54.674Z,6.50
2023-02-18T18:08:24.241Z,5.70
2023-02-18T18:10:54.916Z,6.20
2023-02-18T18:13:26.282Z,5.60
2023-02-18T18:15:57.927Z,6.03
2023-02-18T18:18:27.959Z,7.97
2023-02-18T18:20:59.135Z,8.97
2023-02-18T18:23:29.749Z,9.97
2023-02-18T18:25:59.788Z,8.83
2023-02-18T18:28:33.191Z,6.97
2023-02-18T18:31:03.646Z,6.57
2023-02-18T18:33:33.861Z,14.57
2023-02-18T18:36:03.526Z,12.80
2023-02-18T18:38:33.015Z,10.23
2023-02-18T18:41:02.332Z,11.60
2023-02-18T18:43:35.745Z,10.70
2023-02-18T18:46:05.320Z,0.70
2023-02-18T18:48:34.616Z,6.03
2023-02-18T18:51:03.952Z,0.80
2023-02-18T18:53:33.934Z,4.80
2023-02-18T18:56:04.496Z,9.50
2023-02-18T18:58:35.268Z,2.70
2023-02-18T19:01:05.618Z,0.80
2023-02-18T19:03:35.757Z,0.80
2023-02-18T19:06:05.170Z,0.80
2023-02-18T19:08:34.434Z,9.10
2023-02-18T19:11:04.337Z,15.90
2023-02-18T19:13:34.172Z,14.60
2023-02-18T19:16:06.031Z,11.80
2023-02-18T19:18:35.674Z,13.97
2023-02-18T19:21:05.485Z,13.67
2023-02-18T19:23:34.772Z,13.83
2023-02-18T19:26:04.274Z,13.30
2023-02-18T19:28:34.056Z,10.40
2023-02-18T19:31:05.490Z,10.53
2023-02-18T19:33:35.500Z,10.57
2023-02-18T19:36:07.986Z,9.90
2023-02-18T19:38:37.209Z,10.43
2023-02-18T19:41:10.470Z,8.80
2023-02-18T19:43:40.230Z,11.60
2023-02-18T19:46:11.954Z,10.07
2023-02-18T19:48:41.487Z,9.97
2023-02-18T19:51:11.395Z,10.07
2023-02-18T19:53:41.084Z,13.23
2023-02-18T19:56:10.446Z,11.50
2023-02-18T19:58:41.187Z,11.97
2023-02-18T20:01:14.933Z,12.77
2023-02-18T20:03:44.237Z,11.90
2023-02-18T20:06:17.262Z,11.37
2023-02-18T20:08:47.136Z,11.40
2023-02-18T20:11:16.768Z,13.07
2023-02-18T20:13:46.230Z,13.00
2023-02-18T20:16:17.241Z,15.10
2023-02-18T20:18:47.592Z,17.83
2023-02-18T20:21:17.194Z,15.60
2023-02-18T20:23:46.882Z,16.37
2023-02-18T20:26:16.589Z,17.10
2023-02-18T20:28:46.175Z,15.70
2023-02-18T20:31:17.453Z,16.80
2023-02-18T20:33:47.145Z,16.00
2023-02-18T20:36:16.929Z,19.50
2023-02-18T20:38:46.623Z,18.73
2023-02-18T20:41:18.044Z,17.13
2023-02-18T20:43:48.112Z,15.40
2023-02-18T20:46:20.918Z,13.93
2023-02-18T20:48:51.890Z,15.00
2023-02-18T20:51:22.342Z,13.10
2023-02-18T20:53:51.971Z,14.30
2023-02-18T20:56:22.115Z,11.90
2023-02-18T20:58:52.153Z,16.00
2023-02-18T21:01:23.533Z,12.70
2023-02-18T21:03:52.878Z,21.20
2023-02-18T21:06:22.717Z,16.73
2023-02-18T21:08:53.875Z,14.10
2023-02-18T21:11:24.219Z,13.87
2023-02-18T21:13:54.619Z,14.67
2023-02-18T21:16:25.938Z,14.53
2023-02-18T21:18:55.788Z,14.93
2023-02-18T21:21:25.212Z,18.50
2023-02-18T21:23:54.893Z,17.00
2023-02-18T21:26:24.964Z,17.53
2023-02-18T21:28:55.419Z,15.40
2023-02-18T21:31:26.959Z,16.77
2023-02-18T21:33:56.370Z,21.03
2023-02-18T21:36:25.819Z,14.47
2023-02-18T21:38:55.789Z,15.50
2023-02-18T21:41:25.304Z,14.30
2023-02-18T21:43:54.828Z,12.70
2023-02-18T21:46:24.712Z,13.33
2023-02-18T21:49:06.099Z,14.90
2023-02-18T21:51:54.418Z,15.90
2023-02-18T21:54:25.428Z,15.60
2023-02-18T21:56:54.992Z,16.00
2023-02-18T21:59:25.039Z,29.70
2023-02-18T22:01:54.457Z,20.60
2023-02-18T22:04:25.606Z,14.90
2023-02-18T22:06:54.973Z,13.57
2023-02-18T22:09:24.124Z,13.33
2023-02-18T22:11:53.596Z,13.90
2023-02-18T22:14:23.451Z,15.57
2023-02-18T22:16:52.686Z,20.23
2023-02-18T22:19:21.917Z,17.47
2023-02-18T22:21:52.640Z,16.87
2023-02-18T22:24:21.947Z,18.00
2023-02-18T22:26:51.339Z,17.03
2023-02-18T22:29:21.441Z,16.87
2023-02-18T22:31:53.555Z,17.33
2023-02-18T22:34:23.426Z,15.33
2023-02-18T22:36:53.961Z,16.63
2023-02-18T22:39:23.260Z,14.97
2023-02-18T22:41:52.501Z,13.73
2023-02-18T22:44:23.104Z,13.20
2023-02-18T22:46:52.556Z,15.20
2023-02-18T22:49:21.772Z,13.77
2023-02-18T22:51:53.215Z,12.93
2023-02-18T22:54:24.007Z,13.37
2023-02-18T22:56:53.358Z,14.60
2023-02-18T22:59:22.563Z,18.90
2023-02-18T23:01:53.250Z,18.33
2023-02-18T23:04:22.809Z,14.87
2023-02-18T23:06:52.245Z,12.90
2023-02-18T23:09:22.396Z,13.30
2023-02-18T23:11:53.707Z,15.10
2023-02-18T23:14:23.260Z,10.77
2023-02-18T23:17:10.540Z,12.07
2023-02-18T23:19:40.026Z,11.40
2023-02-18T23:22:09.696Z,11.20
2023-02-18T23:24:41.067Z,9.97
2023-02-18T23:27:12.838Z,10.10
2023-02-18T23:29:42.492Z,10.00
2023-02-18T23:32:12.261Z,8.53
2023-02-18T23:34:41.684Z,9.43
2023-02-18T23:37:11.790Z,10.03
2023-02-18T23:39:41.166Z,10.23
2023-02-18T23:42:13.494Z,10.03
2023-02-18T23:44:42.826Z,10.33
2023-02-18T23:47:11.933Z,9.70
2023-02-18T23:49:41.152Z,9.87
2023-02-18T23:52:10.429Z,9.70
2023-02-18T23:54:39.654Z,9.20
2023-02-18T23:57:08.883Z,9.13
2023-02-18T23:59:39.535Z,11.17
